sensor_id;sensor_type;location;lat;lon;timestamp;pressure;altitude;pressure_sealevel;temperature
76901;BMP280;65859;43.020;25.096;2023-12-28T00:02:21;100488.81;;;4.27
76901;BMP280;65859;43.020;25.096;2023-12-28T00:05:06;100491.53;;;4.32
76901;BMP280;65859;43.020;25.096;2023-12-28T00:07:52;100489.69;;;4.32
76901;BMP280;65859;43.020;25.096;2023-12-28T00:10:41;100488.25;;;4.03
76901;BMP280;65859;43.020;25.096;2023-12-28T00:13:26;100491.00;;;3.57
76901;BMP280;65859;43.020;25.096;2023-12-28T00:16:11;100501.38;;;3.86
76901;BMP280;65859;43.020;25.096;2023-12-28T00:18:56;100496.66;;;4.05
76901;BMP280;65859;43.020;25.096;2023-12-28T00:21:41;100498.59;;;4.09
76901;BMP280;65859;43.020;25.096;2023-12-28T00:24:26;100504.84;;;3.69
76901;BMP280;65859;43.020;25.096;2023-12-28T00:27:10;100509.44;;;3.00
76901;BMP280;65859;43.020;25.096;2023-12-28T00:29:55;100513.72;;;2.89
76901;BMP280;65859;43.020;25.096;2023-12-28T00:32:40;100510.63;;;2.92
76901;BMP280;65859;43.020;25.096;2023-12-28T00:35:27;100501.31;;;3.30
76901;BMP280;65859;43.020;25.096;2023-12-28T00:38:14;100512.59;;;3.31
76901;BMP280;65859;43.020;25.096;2023-12-28T00:40:58;100515.41;;;3.75
76901;BMP280;65859;43.020;25.096;2023-12-28T00:43:43;100522.28;;;3.30
76901;BMP280;65859;43.020;25.096;2023-12-28T00:46:28;100521.13;;;3.21
76901;BMP280;65859;43.020;25.096;2023-12-28T00:49:13;100520.81;;;3.51
76901;BMP280;65859;43.020;25.096;2023-12-28T00:51:58;100523.19;;;3.53
76901;BMP280;65859;43.020;25.096;2023-12-28T00:54:42;100524.59;;;3.72
76901;BMP280;65859;43.020;25.096;2023-12-28T00:57:27;100525.06;;;3.69
76901;BMP280;65859;43.020;25.096;2023-12-28T01:00:13;100531.25;;;3.46
76901;BMP280;65859;43.020;25.096;2023-12-28T01:02:57;100499.22;;;3.15
76901;BMP280;65859;43.020;25.096;2023-12-28T01:05:42;100519.13;;;3.28
76901;BMP280;65859;43.020;25.096;2023-12-28T01:08:28;100521.34;;;3.19
76901;BMP280;65859;43.020;25.096;2023-12-28T01:11:14;100531.34;;;3.23
76901;BMP280;65859;43.020;25.096;2023-12-28T01:13:59;100539.00;;;3.41
76901;BMP280;65859;43.020;25.096;2023-12-28T01:16:44;100530.44;;;3.45
76901;BMP280;65859;43.020;25.096;2023-12-28T01:19:28;100527.63;;;3.52
76901;BMP280;65859;43.020;25.096;2023-12-28T01:22:13;100532.13;;;3.68
76901;BMP280;65859;43.020;25.096;2023-12-28T01:24:57;100536.59;;;3.23
76901;BMP280;65859;43.020;25.096;2023-12-28T01:27:42;100538.03;;;3.13
76901;BMP280;65859;43.020;25.096;2023-12-28T01:30:27;100533.88;;;3.46
76901;BMP280;65859;43.020;25.096;2023-12-28T01:33:12;100541.31;;;3.54
76901;BMP280;65859;43.020;25.096;2023-12-28T01:35:58;100543.53;;;2.60
76901;BMP280;65859;43.020;25.096;2023-12-28T01:38:45;100541.81;;;1.71
76901;BMP280;65859;43.020;25.096;2023-12-28T01:41:31;100537.66;;;2.17
76901;BMP280;65859;43.020;25.096;2023-12-28T01:44:15;100539.94;;;3.18
76901;BMP280;65859;43.020;25.096;2023-12-28T01:47:01;100546.31;;;3.22
76901;BMP280;65859;43.020;25.096;2023-12-28T01:49:46;100536.44;;;3.29
76901;BMP280;65859;43.020;25.096;2023-12-28T01:52:31;100539.31;;;2.99
76901;BMP280;65859;43.020;25.096;2023-12-28T01:55:17;100532.38;;;2.93
76901;BMP280;65859;43.020;25.096;2023-12-28T01:58:02;100538.44;;;2.93
76901;BMP280;65859;43.020;25.096;2023-12-28T02:00:48;100537.19;;;2.32
76901;BMP280;65859;43.020;25.096;2023-12-28T02:03:34;100539.44;;;2.40
76901;BMP280;65859;43.020;25.096;2023-12-28T02:06:19;100520.91;;;2.82
76901;BMP280;65859;43.020;25.096;2023-12-28T02:09:08;100531.78;;;3.03
76901;BMP280;65859;43.020;25.096;2023-12-28T02:11:53;100533.63;;;2.90
76901;BMP280;65859;43.020;25.096;2023-12-28T02:14:39;100532.88;;;2.78
76901;BMP280;65859;43.020;25.096;2023-12-28T02:17:44;100527.81;;;2.60
76901;BMP280;65859;43.020;25.096;2023-12-28T02:20:32;100519.78;;;2.14
76901;BMP280;65859;43.020;25.096;2023-12-28T02:23:17;100512.47;;;1.69
76901;BMP280;65859;43.020;25.096;2023-12-28T02:26:02;100507.91;;;1.77
76901;BMP280;65859;43.020;25.096;2023-12-28T02:28:48;100495.81;;;1.52
76901;BMP280;65859;43.020;25.096;2023-12-28T02:31:39;100495.56;;;1.42
76901;BMP280;65859;43.020;25.096;2023-12-28T02:34:33;100489.03;;;1.21
76901;BMP280;65859;43.020;25.096;2023-12-28T02:37:19;100491.19;;;1.36
76901;BMP280;65859;43.020;25.096;2023-12-28T02:40:06;100499.09;;;1.48
76901;BMP280;65859;43.020;25.096;2023-12-28T02:42:52;100494.38;;;2.27
76901;BMP280;65859;43.020;25.096;2023-12-28T02:45:38;100501.50;;;2.55
76901;BMP280;65859;43.020;25.096;2023-12-28T02:48:24;100501.50;;;2.55
76901;BMP280;65859;43.020;25.096;2023-12-28T02:51:10;100495.69;;;2.53
76901;BMP280;65859;43.020;25.096;2023-12-28T02:53:54;100492.06;;;2.42
76901;BMP280;65859;43.020;25.096;2023-12-28T02:56:40;100484.81;;;2.32
76901;BMP280;65859;43.020;25.096;2023-12-28T02:59:25;100483.13;;;2.14
76901;BMP280;65859;43.020;25.096;2023-12-28T03:02:10;100475.41;;;1.84
76901;BMP280;65859;43.020;25.096;2023-12-28T03:04:55;100467.75;;;1.94
76901;BMP280;65859;43.020;25.096;2023-12-28T03:07:40;100448.75;;;1.99
76901;BMP280;65859;43.020;25.096;2023-12-28T03:10:26;100469.09;;;1.62
76901;BMP280;65859;43.020;25.096;2023-12-28T03:13:11;100475.16;;;2.21
76901;BMP280;65859;43.020;25.096;2023-12-28T03:15:56;100484.75;;;2.56
76901;BMP280;65859;43.020;25.096;2023-12-28T03:18:40;100487.00;;;2.00
76901;BMP280;65859;43.020;25.096;2023-12-28T03:21:25;100480.34;;;2.44
76901;BMP280;65859;43.020;25.096;2023-12-28T03:24:10;100478.91;;;2.25
76901;BMP280;65859;43.020;25.096;2023-12-28T03:26:55;100484.38;;;2.12
76901;BMP280;65859;43.020;25.096;2023-12-28T03:29:41;100481.75;;;2.12
76901;BMP280;65859;43.020;25.096;2023-12-28T03:32:29;100486.88;;;2.30
76901;BMP280;65859;43.020;25.096;2023-12-28T03:35:14;100496.28;;;1.61
76901;BMP280;65859;43.020;25.096;2023-12-28T03:37:58;100485.88;;;1.84
76901;BMP280;65859;43.020;25.096;2023-12-28T03:40:45;100498.00;;;1.67
76901;BMP280;65859;43.020;25.096;2023-12-28T03:43:32;100493.03;;;1.77
76901;BMP280;65859;43.020;25.096;2023-12-28T03:46:17;100490.19;;;2.14
76901;BMP280;65859;43.020;25.096;2023-12-28T03:49:02;100487.31;;;2.27
76901;BMP280;65859;43.020;25.096;2023-12-28T03:51:48;100492.13;;;2.07
76901;BMP280;65859;43.020;25.096;2023-12-28T03:54:33;100498.13;;;1.84
76901;BMP280;65859;43.020;25.096;2023-12-28T03:57:18;100489.25;;;1.96
76901;BMP280;65859;43.020;25.096;2023-12-28T04:00:03;100499.50;;;2.10
76901;BMP280;65859;43.020;25.096;2023-12-28T04:02:48;100495.06;;;2.22
76901;BMP280;65859;43.020;25.096;2023-12-28T04:05:32;100504.00;;;1.56
76901;BMP280;65859;43.020;25.096;2023-12-28T04:08:17;100492.00;;;0.76
76901;BMP280;65859;43.020;25.096;2023-12-28T04:11:03;100497.59;;;0.61
76901;BMP280;65859;43.020;25.096;2023-12-28T04:13:49;100493.31;;;0.67
76901;BMP280;65859;43.020;25.096;2023-12-28T04:16:33;100498.44;;;0.92
76901;BMP280;65859;43.020;25.096;2023-12-28T04:19:18;100509.56;;;1.48
76901;BMP280;65859;43.020;25.096;2023-12-28T04:22:03;100518.06;;;1.85
76901;BMP280;65859;43.020;25.096;2023-12-28T04:24:48;100504.28;;;1.24
76901;BMP280;65859;43.020;25.096;2023-12-28T04:27:33;100505.00;;;0.83
76901;BMP280;65859;43.020;25.096;2023-12-28T04:30:17;100505.13;;;0.69
76901;BMP280;65859;43.020;25.096;2023-12-28T04:33:02;100488.59;;;0.57
76901;BMP280;65859;43.020;25.096;2023-12-28T04:35:47;100499.03;;;0.76
76901;BMP280;65859;43.020;25.096;2023-12-28T04:38:32;100498.81;;;0.77
76901;BMP280;65859;43.020;25.096;2023-12-28T04:41:18;100497.56;;;0.43
76901;BMP280;65859;43.020;25.096;2023-12-28T04:44:04;100502.97;;;0.66
76901;BMP280;65859;43.020;25.096;2023-12-28T04:46:48;100479.81;;;0.33
76901;BMP280;65859;43.020;25.096;2023-12-28T04:49:33;100490.56;;;0.25
76901;BMP280;65859;43.020;25.096;2023-12-28T04:52:17;100486.78;;;0.39
76901;BMP280;65859;43.020;25.096;2023-12-28T04:55:02;100490.38;;;0.02
76901;BMP280;65859;43.020;25.096;2023-12-28T04:57:47;100486.41;;;0.36
76901;BMP280;65859;43.020;25.096;2023-12-28T05:00:31;100491.28;;;0.51
76901;BMP280;65859;43.020;25.096;2023-12-28T05:03:16;100491.34;;;0.62
76901;BMP280;65859;43.020;25.096;2023-12-28T05:06:02;100490.41;;;0.20
76901;BMP280;65859;43.020;25.096;2023-12-28T05:08:47;100487.13;;;0.06
76901;BMP280;65859;43.020;25.096;2023-12-28T05:11:33;100499.25;;;0.37
76901;BMP280;65859;43.020;25.096;2023-12-28T05:14:18;100501.00;;;0.80
76901;BMP280;65859;43.020;25.096;2023-12-28T05:17:02;100493.00;;;0.93
76901;BMP280;65859;43.020;25.096;2023-12-28T05:19:48;100485.00;;;0.88
76901;BMP280;65859;43.020;25.096;2023-12-28T05:22:33;100480.25;;;0.48
76901;BMP280;65859;43.020;25.096;2023-12-28T05:25:17;100489.06;;;0.11
76901;BMP280;65859;43.020;25.096;2023-12-28T05:28:02;100485.63;;;0.17
76901;BMP280;65859;43.020;25.096;2023-12-28T05:30:47;100486.63;;;0.34
76901;BMP280;65859;43.020;25.096;2023-12-28T05:33:32;100485.84;;;0.70
76901;BMP280;65859;43.020;25.096;2023-12-28T05:36:16;100486.59;;;1.08
76901;BMP280;65859;43.020;25.096;2023-12-28T05:39:01;100499.19;;;1.41
76901;BMP280;65859;43.020;25.096;2023-12-28T05:41:48;100497.72;;;1.33
76901;BMP280;65859;43.020;25.096;2023-12-28T05:44:35;100507.16;;;1.34
76901;BMP280;65859;43.020;25.096;2023-12-28T05:47:20;100493.28;;;1.34
76901;BMP280;65859;43.020;25.096;2023-12-28T05:50:05;100488.53;;;1.12
76901;BMP280;65859;43.020;25.096;2023-12-28T05:52:50;100490.09;;;1.43
76901;BMP280;65859;43.020;25.096;2023-12-28T05:55:35;100497.72;;;1.33
76901;BMP280;65859;43.020;25.096;2023-12-28T05:58:19;100491.25;;;1.06
76901;BMP280;65859;43.020;25.096;2023-12-28T06:01:05;100498.00;;;0.58
76901;BMP280;65859;43.020;25.096;2023-12-28T06:03:49;100495.75;;;0.98
76901;BMP280;65859;43.020;25.096;2023-12-28T06:06:36;100488.41;;;1.07
76901;BMP280;65859;43.020;25.096;2023-12-28T06:09:21;100501.34;;;1.02
76901;BMP280;65859;43.020;25.096;2023-12-28T06:12:08;100494.84;;;1.88
76901;BMP280;65859;43.020;25.096;2023-12-28T06:14:52;100504.63;;;1.69
76901;BMP280;65859;43.020;25.096;2023-12-28T06:17:37;100497.91;;;1.97
76901;BMP280;65859;43.020;25.096;2023-12-28T06:20:21;100505.22;;;2.18
76901;BMP280;65859;43.020;25.096;2023-12-28T06:23:07;100515.19;;;2.33
76901;BMP280;65859;43.020;25.096;2023-12-28T06:25:53;100511.78;;;2.44
76901;BMP280;65859;43.020;25.096;2023-12-28T06:28:40;100512.72;;;2.79
76901;BMP280;65859;43.020;25.096;2023-12-28T06:31:24;100508.13;;;2.45
76901;BMP280;65859;43.020;25.096;2023-12-28T06:34:10;100508.22;;;2.39
76901;BMP280;65859;43.020;25.096;2023-12-28T06:36:54;100509.31;;;3.07
76901;BMP280;65859;43.020;25.096;2023-12-28T06:39:39;100495.91;;;3.37
76901;BMP280;65859;43.020;25.096;2023-12-28T06:42:25;100510.47;;;3.44
76901;BMP280;65859;43.020;25.096;2023-12-28T06:45:11;100515.63;;;3.90
76901;BMP280;65859;43.020;25.096;2023-12-28T06:47:56;100510.50;;;4.00
76901;BMP280;65859;43.020;25.096;2023-12-28T06:50:41;100505.25;;;4.17
76901;BMP280;65859;43.020;25.096;2023-12-28T06:53:25;100506.56;;;3.97
76901;BMP280;65859;43.020;25.096;2023-12-28T06:56:10;100506.03;;;3.62
76901;BMP280;65859;43.020;25.096;2023-12-28T06:58:54;100501.63;;;4.23
76901;BMP280;65859;43.020;25.096;2023-12-28T07:01:39;100506.44;;;3.54
76901;BMP280;65859;43.020;25.096;2023-12-28T07:04:24;100502.66;;;4.22
76901;BMP280;65859;43.020;25.096;2023-12-28T07:07:11;100507.09;;;4.00
76901;BMP280;65859;43.020;25.096;2023-12-28T07:09:56;100501.41;;;4.68
76901;BMP280;65859;43.020;25.096;2023-12-28T07:12:43;100500.09;;;4.98
76901;BMP280;65859;43.020;25.096;2023-12-28T07:15:28;100494.19;;;5.13
76901;BMP280;65859;43.020;25.096;2023-12-28T07:18:12;100500.06;;;5.20
76901;BMP280;65859;43.020;25.096;2023-12-28T07:20:58;100506.22;;;5.73
76901;BMP280;65859;43.020;25.096;2023-12-28T07:23:43;100493.31;;;5.71
76901;BMP280;65859;43.020;25.096;2023-12-28T07:26:33;100493.16;;;5.88
76901;BMP280;65859;43.020;25.096;2023-12-28T07:29:18;100498.75;;;6.02
76901;BMP280;65859;43.020;25.096;2023-12-28T07:32:03;100483.66;;;6.65
76901;BMP280;65859;43.020;25.096;2023-12-28T07:34:48;100484.94;;;6.37
76901;BMP280;65859;43.020;25.096;2023-12-28T07:37:33;100493.81;;;6.16
76901;BMP280;65859;43.020;25.096;2023-12-28T07:40:18;100489.88;;;6.23
76901;BMP280;65859;43.020;25.096;2023-12-28T07:43:05;100489.69;;;6.40
76901;BMP280;65859;43.020;25.096;2023-12-28T07:45:49;100482.84;;;5.82
76901;BMP280;65859;43.020;25.096;2023-12-28T07:48:34;100486.19;;;6.24
76901;BMP280;65859;43.020;25.096;2023-12-28T07:51:19;100486.88;;;6.77
76901;BMP280;65859;43.020;25.096;2023-12-28T07:54:05;100472.06;;;7.43
76901;BMP280;65859;43.020;25.096;2023-12-28T07:56:50;100483.44;;;7.28
76901;BMP280;65859;43.020;25.096;2023-12-28T07:59:34;100474.06;;;7.92
76901;BMP280;65859;43.020;25.096;2023-12-28T08:02:19;100485.13;;;8.04
76901;BMP280;65859;43.020;25.096;2023-12-28T08:05:04;100478.53;;;7.96
76901;BMP280;65859;43.020;25.096;2023-12-28T08:07:49;100486.84;;;8.73
76901;BMP280;65859;43.020;25.096;2023-12-28T08:10:34;100485.91;;;7.94
76901;BMP280;65859;43.020;25.096;2023-12-28T08:13:20;100482.84;;;7.67
76901;BMP280;65859;43.020;25.096;2023-12-28T08:16:05;100489.56;;;8.14
76901;BMP280;65859;43.020;25.096;2023-12-28T08:18:51;100484.34;;;8.03
76901;BMP280;65859;43.020;25.096;2023-12-28T08:21:36;100480.31;;;8.11
76901;BMP280;65859;43.020;25.096;2023-12-28T08:24:21;100476.00;;;8.25
76901;BMP280;65859;43.020;25.096;2023-12-28T08:27:05;100478.78;;;8.54
76901;BMP280;65859;43.020;25.096;2023-12-28T08:29:52;100479.44;;;9.04
76901;BMP280;65859;43.020;25.096;2023-12-28T08:32:37;100475.03;;;8.95
76901;BMP280;65859;43.020;25.096;2023-12-28T08:35:21;100475.03;;;9.24
76901;BMP280;65859;43.020;25.096;2023-12-28T08:38:06;100467.16;;;8.50
76901;BMP280;65859;43.020;25.096;2023-12-28T08:40:53;100459.31;;;8.35
76901;BMP280;65859;43.020;25.096;2023-12-28T08:43:39;100466.16;;;10.00
76901;BMP280;65859;43.020;25.096;2023-12-28T08:46:24;100473.50;;;10.46
76901;BMP280;65859;43.020;25.096;2023-12-28T08:49:09;100469.69;;;10.33
76901;BMP280;65859;43.020;25.096;2023-12-28T08:51:54;100471.13;;;11.23
76901;BMP280;65859;43.020;25.096;2023-12-28T08:54:40;100466.53;;;10.82
76901;BMP280;65859;43.020;25.096;2023-12-28T08:57:25;100453.53;;;11.27
76901;BMP280;65859;43.020;25.096;2023-12-28T09:00:11;100446.22;;;11.60
76901;BMP280;65859;43.020;25.096;2023-12-28T09:02:56;100455.56;;;11.72
76901;BMP280;65859;43.020;25.096;2023-12-28T09:05:41;100446.16;;;12.24
76901;BMP280;65859;43.020;25.096;2023-12-28T09:08:26;100443.81;;;12.76
76901;BMP280;65859;43.020;25.096;2023-12-28T09:11:11;100446.38;;;12.59
76901;BMP280;65859;43.020;25.096;2023-12-28T09:13:57;100444.19;;;12.92
76901;BMP280;65859;43.020;25.096;2023-12-28T09:16:46;100428.38;;;13.61
76901;BMP280;65859;43.020;25.096;2023-12-28T09:19:31;100429.16;;;13.79
76901;BMP280;65859;43.020;25.096;2023-12-28T09:22:16;100429.41;;;13.34
76901;BMP280;65859;43.020;25.096;2023-12-28T09:25:00;100429.75;;;14.10
76901;BMP280;65859;43.020;25.096;2023-12-28T09:27:45;100425.38;;;14.06
76901;BMP280;65859;43.020;25.096;2023-12-28T09:30:30;100414.41;;;13.73
76901;BMP280;65859;43.020;25.096;2023-12-28T09:33:14;100410.16;;;13.54
76901;BMP280;65859;43.020;25.096;2023-12-28T09:36:02;100404.66;;;12.85
76901;BMP280;65859;43.020;25.096;2023-12-28T09:38:47;100399.91;;;13.30
76901;BMP280;65859;43.020;25.096;2023-12-28T09:41:36;100397.41;;;13.17
76901;BMP280;65859;43.020;25.096;2023-12-28T09:44:25;100381.72;;;13.07
76901;BMP280;65859;43.020;25.096;2023-12-28T09:47:11;100391.63;;;14.10
76901;BMP280;65859;43.020;25.096;2023-12-28T09:49:57;100387.34;;;14.17
76901;BMP280;65859;43.020;25.096;2023-12-28T09:52:42;100380.09;;;16.23
76901;BMP280;65859;43.020;25.096;2023-12-28T09:55:27;100386.75;;;14.97
76901;BMP280;65859;43.020;25.096;2023-12-28T09:58:14;100382.75;;;14.82
76901;BMP280;65859;43.020;25.096;2023-12-28T10:01:01;100375.19;;;13.91
76901;BMP280;65859;43.020;25.096;2023-12-28T10:03:46;100374.69;;;14.53
76901;BMP280;65859;43.020;25.096;2023-12-28T10:06:31;100362.75;;;15.30
76901;BMP280;65859;43.020;25.096;2023-12-28T10:09:16;100357.94;;;15.44
76901;BMP280;65859;43.020;25.096;2023-12-28T10:12:01;100356.78;;;14.83
76901;BMP280;65859;43.020;25.096;2023-12-28T10:14:50;100351.97;;;16.05
76901;BMP280;65859;43.020;25.096;2023-12-28T10:17:36;100328.06;;;16.85
76901;BMP280;65859;43.020;25.096;2023-12-28T10:20:20;100333.25;;;17.78
76901;BMP280;65859;43.020;25.096;2023-12-28T10:23:05;100331.78;;;17.96
76901;BMP280;65859;43.020;25.096;2023-12-28T10:25:51;100326.81;;;17.51
76901;BMP280;65859;43.020;25.096;2023-12-28T10:28:39;100327.97;;;18.28
76901;BMP280;65859;43.020;25.096;2023-12-28T10:31:24;100308.16;;;18.37
76901;BMP280;65859;43.020;25.096;2023-12-28T10:34:09;100309.91;;;19.03
76901;BMP280;65859;43.020;25.096;2023-12-28T10:36:54;100311.78;;;18.09
76901;BMP280;65859;43.020;25.096;2023-12-28T10:39:41;100309.66;;;19.08
76901;BMP280;65859;43.020;25.096;2023-12-28T10:42:43;100304.91;;;19.66
76901;BMP280;65859;43.020;25.096;2023-12-28T10:45:32;100300.44;;;19.51
76901;BMP280;65859;43.020;25.096;2023-12-28T10:48:22;100295.25;;;19.88
76901;BMP280;65859;43.020;25.096;2023-12-28T10:51:11;100286.97;;;19.51
76901;BMP280;65859;43.020;25.096;2023-12-28T10:54:05;100283.00;;;21.73
76901;BMP280;65859;43.020;25.096;2023-12-28T10:57:40;100285.06;;;23.16
76901;BMP280;65859;43.020;25.096;2023-12-28T11:00:08;100276.25;;;25.42
76901;BMP280;65859;43.020;25.096;2023-12-28T11:02:58;100274.47;;;25.62
76901;BMP280;65859;43.020;25.096;2023-12-28T11:05:47;100272.00;;;27.09
76901;BMP280;65859;43.020;25.096;2023-12-28T11:08:33;100259.66;;;26.01
76901;BMP280;65859;43.020;25.096;2023-12-28T11:11:21;100258.56;;;26.75
76901;BMP280;65859;43.020;25.096;2023-12-28T11:14:06;100254.50;;;27.89
76901;BMP280;65859;43.020;25.096;2023-12-28T11:16:54;100253.66;;;27.13
76901;BMP280;65859;43.020;25.096;2023-12-28T11:19:40;100243.56;;;27.70
76901;BMP280;65859;43.020;25.096;2023-12-28T11:22:25;100243.56;;;27.70
76901;BMP280;65859;43.020;25.096;2023-12-28T11:25:17;100234.50;;;29.19
76901;BMP280;65859;43.020;25.096;2023-12-28T11:28:10;100229.97;;;27.50
76901;BMP280;65859;43.020;25.096;2023-12-28T11:30:56;100227.69;;;27.84
76901;BMP280;65859;43.020;25.096;2023-12-28T11:33:50;100219.03;;;29.41
76901;BMP280;65859;43.020;25.096;2023-12-28T11:36:46;100219.75;;;30.30
76901;BMP280;65859;43.020;25.096;2023-12-28T11:39:34;100215.72;;;28.92
76901;BMP280;65859;43.020;25.096;2023-12-28T11:42:22;100219.09;;;29.25
76901;BMP280;65859;43.020;25.096;2023-12-28T11:45:07;100215.41;;;28.74
76901;BMP280;65859;43.020;25.096;2023-12-28T11:48:00;100212.19;;;28.62
76901;BMP280;65859;43.020;25.096;2023-12-28T11:50:46;100209.97;;;29.44
76901;BMP280;65859;43.020;25.096;2023-12-28T11:53:30;100215.78;;;29.59
76901;BMP280;65859;43.020;25.096;2023-12-28T11:56:16;100210.16;;;28.18
76901;BMP280;65859;43.020;25.096;2023-12-28T11:59:01;100204.78;;;29.33
76901;BMP280;65859;43.020;25.096;2023-12-28T12:01:53;100206.97;;;28.68
76901;BMP280;65859;43.020;25.096;2023-12-28T12:04:37;100199.44;;;29.01
76901;BMP280;65859;43.020;25.096;2023-12-28T12:07:23;100185.88;;;29.77
76901;BMP280;65859;43.020;25.096;2023-12-28T12:10:13;100192.78;;;29.44
76901;BMP280;65859;43.020;25.096;2023-12-28T12:13:00;100190.75;;;29.19
76901;BMP280;65859;43.020;25.096;2023-12-28T12:15:45;100185.88;;;29.77
76901;BMP280;65859;43.020;25.096;2023-12-28T12:18:36;100184.56;;;29.02
76901;BMP280;65859;43.020;25.096;2023-12-28T12:21:22;100184.00;;;29.36
76901;BMP280;65859;43.020;25.096;2023-12-28T12:24:07;100174.88;;;28.56
76901;BMP280;65859;43.020;25.096;2023-12-28T12:26:52;100158.97;;;28.06
76901;BMP280;65859;43.020;25.096;2023-12-28T12:29:37;100164.97;;;27.09
76901;BMP280;65859;43.020;25.096;2023-12-28T12:32:23;100155.84;;;26.96
76901;BMP280;65859;43.020;25.096;2023-12-28T12:35:11;100152.53;;;26.14
76901;BMP280;65859;43.020;25.096;2023-12-28T12:37:56;100114.72;;;26.47
76901;BMP280;65859;43.020;25.096;2023-12-28T12:40:40;100101.06;;;25.73
76901;BMP280;65859;43.020;25.096;2023-12-28T12:43:26;100079.03;;;23.62
76901;BMP280;65859;43.020;25.096;2023-12-28T12:46:11;100067.94;;;20.92
76901;BMP280;65859;43.020;25.096;2023-12-28T12:49:00;100066.84;;;19.18
76901;BMP280;65859;43.020;25.096;2023-12-28T12:51:47;100063.72;;;19.16
76901;BMP280;65859;43.020;25.096;2023-12-28T12:54:35;100057.69;;;18.08
76901;BMP280;65859;43.020;25.096;2023-12-28T12:57:19;100049.16;;;17.67
76901;BMP280;65859;43.020;25.096;2023-12-28T13:00:05;100040.88;;;17.22
76901;BMP280;65859;43.020;25.096;2023-12-28T13:02:53;100035.03;;;17.00
76901;BMP280;65859;43.020;25.096;2023-12-28T13:05:39;100033.88;;;16.86
76901;BMP280;65859;43.020;25.096;2023-12-28T13:08:28;100035.53;;;16.59
76901;BMP280;65859;43.020;25.096;2023-12-28T13:11:13;100035.59;;;16.46
76901;BMP280;65859;43.020;25.096;2023-12-28T13:13:58;100038.69;;;16.33
76901;BMP280;65859;43.020;25.096;2023-12-28T13:16:42;100039.94;;;16.23
76901;BMP280;65859;43.020;25.096;2023-12-28T13:19:28;100031.72;;;15.76
76901;BMP280;65859;43.020;25.096;2023-12-28T13:22:13;100038.25;;;15.90
76901;BMP280;65859;43.020;25.096;2023-12-28T13:24:58;100036.53;;;16.10
76901;BMP280;65859;43.020;25.096;2023-12-28T13:27:43;100033.50;;;16.40
76901;BMP280;65859;43.020;25.096;2023-12-28T13:30:28;100044.41;;;16.47
76901;BMP280;65859;43.020;25.096;2023-12-28T13:33:13;100048.09;;;16.42
76901;BMP280;65859;43.020;25.096;2023-12-28T13:35:58;100043.84;;;16.26
76901;BMP280;65859;43.020;25.096;2023-12-28T13:38:42;100050.72;;;16.11
76901;BMP280;65859;43.020;25.096;2023-12-28T13:41:27;100045.00;;;15.84
76901;BMP280;65859;43.020;25.096;2023-12-28T13:44:12;100038.56;;;15.73
76901;BMP280;65859;43.020;25.096;2023-12-28T13:46:57;100041.00;;;15.66
76901;BMP280;65859;43.020;25.096;2023-12-28T13:49:44;100043.47;;;15.35
76901;BMP280;65859;43.020;25.096;2023-12-28T13:52:28;100033.56;;;15.11
76901;BMP280;65859;43.020;25.096;2023-12-28T13:55:13;100033.66;;;15.14
76901;BMP280;65859;43.020;25.096;2023-12-28T13:57:58;100032.88;;;15.14
76901;BMP280;65859;43.020;25.096;2023-12-28T14:00:43;100030.31;;;14.93
76901;BMP280;65859;43.020;25.096;2023-12-28T14:03:28;100026.19;;;15.08
76901;BMP280;65859;43.020;25.096;2023-12-28T14:06:13;100017.94;;;15.25
76901;BMP280;65859;43.020;25.096;2023-12-28T14:08:58;100015.59;;;15.23
76901;BMP280;65859;43.020;25.096;2023-12-28T14:11:43;100019.50;;;15.14
76901;BMP280;65859;43.020;25.096;2023-12-28T14:14:28;100015.66;;;15.11
76901;BMP280;65859;43.020;25.096;2023-12-28T14:17:13;100015.81;;;15.06
76901;BMP280;65859;43.020;25.096;2023-12-28T14:20:01;100009.81;;;14.97
76901;BMP280;65859;43.020;25.096;2023-12-28T14:22:47;100013.50;;;14.92
76901;BMP280;65859;43.020;25.096;2023-12-28T14:25:32;100003.66;;;14.84
76901;BMP280;65859;43.020;25.096;2023-12-28T14:28:18;100006.09;;;14.77
76901;BMP280;65859;43.020;25.096;2023-12-28T14:31:03;100004.84;;;14.62
76901;BMP280;65859;43.020;25.096;2023-12-28T14:33:48;100002.97;;;14.63
76901;BMP280;65859;43.020;25.096;2023-12-28T14:36:35;100003.38;;;14.53
76901;BMP280;65859;43.020;25.096;2023-12-28T14:39:20;100003.34;;;14.40
76901;BMP280;65859;43.020;25.096;2023-12-28T14:42:06;100002.41;;;14.24
76901;BMP280;65859;43.020;25.096;2023-12-28T14:44:52;100009.09;;;13.97
76901;BMP280;65859;43.020;25.096;2023-12-28T14:47:37;100003.31;;;13.66
76901;BMP280;65859;43.020;25.096;2023-12-28T14:50:23;99995.94;;;13.63
76901;BMP280;65859;43.020;25.096;2023-12-28T14:53:08;99993.38;;;13.45
76901;BMP280;65859;43.020;25.096;2023-12-28T14:55:53;100002.03;;;13.42
76901;BMP280;65859;43.020;25.096;2023-12-28T14:58:39;99995.03;;;13.29
76901;BMP280;65859;43.020;25.096;2023-12-28T15:01:25;99993.84;;;13.18
76901;BMP280;65859;43.020;25.096;2023-12-28T15:04:10;99996.25;;;13.02
76901;BMP280;65859;43.020;25.096;2023-12-28T15:06:55;99995.53;;;12.75
76901;BMP280;65859;43.020;25.096;2023-12-28T15:09:40;99992.59;;;12.68
76901;BMP280;65859;43.020;25.096;2023-12-28T15:12:25;99995.78;;;12.36
76901;BMP280;65859;43.020;25.096;2023-12-28T15:15:11;99991.22;;;12.28
76901;BMP280;65859;43.020;25.096;2023-12-28T15:17:57;99993.03;;;11.84
76901;BMP280;65859;43.020;25.096;2023-12-28T15:20:47;99988.13;;;11.43
76901;BMP280;65859;43.020;25.096;2023-12-28T15:23:32;99992.09;;;11.23
76901;BMP280;65859;43.020;25.096;2023-12-28T15:26:18;99989.88;;;11.56
76901;BMP280;65859;43.020;25.096;2023-12-28T15:29:02;99989.72;;;11.61
76901;BMP280;65859;43.020;25.096;2023-12-28T15:31:48;99990.00;;;11.42
76901;BMP280;65859;43.020;25.096;2023-12-28T15:34:33;99990.06;;;11.20
76901;BMP280;65859;43.020;25.096;2023-12-28T15:37:18;99986.88;;;11.09